Main page
METAR-TAF:

METAR-TAF

Airports :

Philip S. W. Goldson International Airport

Belize City, Belize

latitude: 17-32N, longitude: 088-18W, elevation: 5 m

Current weather observation

The report was made 2 hours and 28 minutes ago, at 04:00 UTC
Calm wind
Temperature 26°C
Humidity 84%
Pressure 1016 hPa
Visibility 10 km or more
Few clouds at a height of 2000 ft

METAR: MZBZ 210400Z 00000KT 9999 FEW020 26/23 A3001 Q1016 NOSIG

Time: 00:28 (06:28 UTC)

Forecast

The report was made 3 hours and 28 minutes ago, at 03:00 UTC
Forecast valid from 21 at 06 UTC to 22 at 06 UTC
Wind 7 kt from the North/Northeast
Visibility 10 km or more
Scattered clouds at a height of 2200 ft
Scattered clouds at a height of 4500 ft
Probability 30% :
Temporary
from 21 at 06 UTC to 21 at 10 UTC
Visibility: 5000 m
Broken clouds at a height of 1500 ft
Broken clouds at a height of 3500 ft
rain showers

TAF: MZBZ 210300Z 2106/2206 03007KT 9999 SCT022 SCT045 PROB30 TEMPO 2106/2110 5000 SHRA BKN015 BKN035

Weather observations and forecasts of more than 4000 airports (METAR and TAF reports).

The available stations are represented by yellow and red dots on the map.

Hover mouse over dot to see the name of the station.

Then click to see weather observations and forecasts.

To change the map : click on the green buttons with a black cross to zoom in, on the green button with a dash to zoom out, or on the green arrows for adjacent maps.


METAR-TAF: